Time;durP1;ratioP1;P1;durP2;ratioP2;P2;SDS_P1;SDS_P2;PMS_P1;PMS_P2;Temp;Humidity;BMP_temperature;BMP_pressure;BME280_temperature;BME280_humidity;BME280_pressure;Samples;Min_cycle;Max_cycle;Signal;HPM_P1;HPM_P2
2023/02/15 00:01:14;;;;;;;0.20;0.10;;;4.00;73.10;;;;;;20984506;28;20554;-59
2023/02/15 00:11:39;;;;;;;0.25;0.10;;;4.20;72.30;;;;;;20978157;28;20493;-59
2023/02/15 00:21:40;;;;;;;0.40;0.10;;;4.30;72.20;;;;;;20985860;28;20044;-58
2023/02/15 00:31:42;;;;;;;0.10;0.10;;;4.40;72.90;;;;;;20970478;28;20048;-58
2023/02/15 00:41:44;;;;;;;0.60;0.10;;;4.40;71.20;;;;;;20989595;28;20032;-58
2023/02/15 00:51:46;;;;;;;0.60;0.10;;;4.50;71.80;;;;;;20983445;28;20054;-57
2023/02/15 01:01:48;;;;;;;0.30;0.10;;;4.30;73.60;;;;;;20971546;28;20037;-57
2023/02/15 01:11:50;;;;;;;0.47;0.10;;;3.90;72.90;;;;;;20966137;28;20048;-57
2023/02/15 01:21:51;;;;;;;0.10;0.10;;;3.90;73.30;;;;;;20978896;28;20485;-58
2023/02/15 01:31:53;;;;;;;0.35;0.10;;;3.90;72.10;;;;;;20978038;28;20098;-58
2023/02/15 01:41:54;;;;;;;0.30;0.10;;;3.80;72.80;;;;;;20964409;28;20033;-58
2023/02/15 01:51:56;;;;;;;0.43;0.05;;;3.90;72.70;;;;;;20978520;28;20029;-58
2023/02/15 02:02:00;;;;;;;0.75;0.15;;;3.90;72.80;;;;;;20958290;28;20473;-57
2023/02/15 02:12:02;;;;;;;0.35;0.15;;;3.70;74.10;;;;;;20952132;28;20127;-57
2023/02/15 02:22:16;;;;;;;0.30;0.10;;;3.50;72.10;;;;;;20977992;28;20070;-57
2023/02/15 02:32:43;;;;;;;0.30;0.10;;;3.50;73.40;;;;;;20984269;28;20040;-57
2023/02/15 02:42:54;;;;;;;0.38;0.20;;;3.50;74.80;;;;;;20965490;28;20036;-57
2023/02/15 02:52:58;;;;;;;0.55;0.13;;;3.40;72.50;;;;;;20958358;28;20036;-59
2023/02/15 03:03:06;;;;;;;1.00;0.10;;;3.20;74.70;;;;;;20984629;28;20547;-58
2023/02/15 03:13:08;;;;;;;0.13;0.10;;;3.20;75.30;;;;;;20983386;28;20109;-57
2023/02/15 03:23:14;;;;;;;0.35;0.10;;;3.30;75.00;;;;;;20973832;28;20414;-57
2023/02/15 03:33:18;;;;;;;0.68;0.20;;;3.30;74.10;;;;;;20946265;28;20102;-57
2023/02/15 03:43:33;;;;;;;0.35;0.15;;;3.50;72.90;;;;;;20974407;28;20040;-58
2023/02/15 03:53:35;;;;;;;0.22;0.10;;;3.70;73.10;;;;;;20988622;28;20032;-57
2023/02/15 04:03:51;;;;;;;0.20;0.10;;;3.50;74.30;;;;;;20970098;28;20032;-57
2023/02/15 04:13:56;;;;;;;0.32;0.10;;;3.60;75.10;;;;;;20978579;28;20099;-58
2023/02/15 04:34:18;;;;;;;0.43;0.10;;;3.50;72.20;;;;;;20977652;28;20090;-57
2023/02/15 04:44:20;;;;;;;0.57;0.20;;;3.30;70.80;;;;;;20974460;28;20063;-59
2023/02/15 04:54:21;;;;;;;0.57;0.10;;;3.30;74.00;;;;;;20979847;28;20067;-57
2023/02/15 05:04:23;;;;;;;0.40;0.20;;;3.30;71.80;;;;;;20991355;28;20032;-58
2023/02/15 05:14:25;;;;;;;0.10;0.10;;;3.40;72.90;;;;;;20952194;28;20055;-66
2023/02/15 05:34:47;;;;;;;0.37;0.10;;;3.10;72.80;;;;;;20968809;28;20394;-59
2023/02/15 05:44:48;;;;;;;0.75;0.30;;;3.10;72.70;;;;;;20973714;28;20028;-59
2023/02/15 05:54:50;;;;;;;1.13;0.20;;;3.10;73.30;;;;;;20962282;28;20036;-59
2023/02/15 06:04:51;;;;;;;0.70;0.10;;;3.20;70.90;;;;;;20976844;28;20063;-68
2023/02/15 06:14:54;;;;;;;0.15;0.10;;;3.20;71.00;;;;;;20940146;28;20386;-67
2023/02/15 06:24:55;;;;;;;0.40;0.10;;;3.40;71.20;;;;;;20947283;28;20029;-67
2023/02/15 06:34:57;;;;;;;0.52;0.20;;;3.10;75.00;;;;;;20942874;28;20045;-67
2023/02/15 06:45:00;;;;;;;0.22;0.10;;;3.10;74.60;;;;;;20928292;28;20029;-58
2023/02/15 06:55:01;;;;;;;0.30;0.10;;;3.30;74.80;;;;;;20972711;28;20071;-59
2023/02/15 07:05:04;;;;;;;0.52;0.10;;;3.30;73.40;;;;;;20942027;28;20423;-59
2023/02/15 07:15:07;;;;;;;0.30;0.10;;;3.40;71.90;;;;;;20979231;28;20509;-59
2023/02/15 07:25:10;;;;;;;0.28;0.10;;;3.60;76.80;;;;;;20969752;28;20037;-67
2023/02/15 07:35:12;;;;;;;0.30;0.20;;;3.70;72.90;;;;;;20961248;28;20045;-67
2023/02/15 07:45:13;;;;;;;14.77;1.08;;;4.20;75.80;;;;;;20958208;28;20034;-63
2023/02/15 07:55:15;;;;;;;0.95;0.20;;;5.10;72.40;;;;;;20983223;28;20421;-57
2023/02/15 08:05:18;;;;;;;0.57;0.20;;;6.10;72.30;;;;;;20976144;28;20463;-67
2023/02/15 08:15:19;;;;;;;1.67;0.20;;;6.90;69.30;;;;;;20985303;28;20044;-65
2023/02/15 08:25:20;;;;;;;2.38;0.40;;;8.10;68.10;;;;;;20950059;28;20052;-59
2023/02/15 08:35:22;;;;;;;2.50;0.30;;;9.10;66.10;;;;;;20951758;28;20036;-66
2023/02/15 08:45:25;;;;;;;1.02;0.28;;;10.40;60.30;;;;;;20983695;28;20102;-59
2023/02/15 08:55:26;;;;;;;1.42;0.43;;;11.30;60.50;;;;;;20982294;28;20033;-59
2023/02/15 09:05:28;;;;;;;0.77;0.30;;;12.10;54.80;;;;;;20958451;28;20470;-65
2023/02/15 09:15:36;;;;;;;0.65;0.30;;;12.80;56.00;;;;;;20982835;28;20114;-59
2023/02/15 09:25:38;;;;;;;0.50;0.40;;;13.40;55.50;;;;;;20959080;28;20033;-60
2023/02/15 09:35:39;;;;;;;0.70;0.43;;;13.90;54.60;;;;;;20931719;28;20138;-66
2023/02/15 09:46:22;;;;;;;1.02;0.40;;;14.30;55.70;;;;;;20934211;28;20556;-59
2023/02/15 09:57:00;;;;;;;1.20;0.30;;;14.70;56.00;;;;;;20803869;28;20041;-59
2023/02/15 10:07:38;;;;;;;1.30;0.30;;;15.10;53.20;;;;;;20570500;28;20121;-65
2023/02/15 10:18:04;;;;;;;0.40;0.22;;;15.40;56.60;;;;;;20559826;28;20101;-65
2023/02/15 10:28:17;;;;;;;0.90;0.40;;;15.50;51.70;;;;;;20612253;28;20066;-60
2023/02/15 10:38:40;;;;;;;0.52;0.30;;;15.60;51.30;;;;;;20795337;28;20032;-65
2023/02/15 10:49:01;;;;;;;2.47;0.60;;;15.80;56.90;;;;;;20976816;28;20036;-60
2023/02/15 10:59:16;;;;;;;3.08;0.40;;;15.80;51.20;;;;;;20928461;28;20124;-65
2023/02/15 11:09:20;;;;;;;1.48;0.52;;;15.70;54.10;;;;;;20942158;28;20048;-59
2023/02/15 11:19:35;;;;;;;1.60;0.65;;;15.90;51.60;;;;;;21000074;28;20037;-60
2023/02/15 11:29:41;;;;;;;0.85;0.50;;;16.00;53.80;;;;;;20984969;28;20444;-60
2023/02/15 11:39:44;;;;;;;2.92;0.90;;;16.20;52.00;;;;;;20972272;28;20048;-66
2023/02/15 11:49:46;;;;;;;1.70;0.90;;;16.30;51.80;;;;;;20995290;28;20024;-65
2023/02/15 11:59:58;;;;;;;3.83;1.08;;;16.00;54.40;;;;;;20989444;28;20489;-61
2023/02/15 12:10:07;;;;;;;2.00;1.20;;;15.80;53.70;;;;;;20979003;28;20102;-65
2023/02/15 12:20:14;;;;;;;2.42;1.10;;;15.60;56.50;;;;;;20990045;28;20095;-59
2023/02/15 12:30:28;;;;;;;2.88;1.40;;;15.60;55.70;;;;;;20941383;28;20033;-64
2023/02/15 12:40:31;;;;;;;3.58;1.30;;;15.60;58.20;;;;;;20974973;28;20347;-64
2023/02/15 12:50:33;;;;;;;4.00;1.42;;;15.60;57.20;;;;;;20976906;28;20095;-60
2023/02/15 13:00:35;;;;;;;2.70;1.55;;;15.50;57.10;;;;;;20906971;28;20033;-64
2023/02/15 13:10:59;;;;;;;6.97;2.17;;;15.60;58.20;;;;;;20886996;28;20103;-64
2023/02/15 13:21:16;;;;;;;2.35;1.60;;;15.70;55.80;;;;;;20901590;28;20095;-63
2023/02/15 13:31:23;;;;;;;4.13;1.88;;;15.40;57.90;;;;;;20907223;28;20036;-63
2023/02/15 13:41:33;;;;;;;4.28;2.20;;;15.20;56.70;;;;;;20907083;28;20044;-60
2023/02/15 13:51:40;;;;;;;;;;;14.90;58.20;;;;;;20907689;28;20063;-65
2023/02/15 14:02:03;;;;;;;6.72;3.80;;;14.30;60.60;;;;;;20891944;28;19960;-67
2023/02/15 14:12:21;;;;;;;7.93;4.18;;;13.20;60.80;;;;;;20884910;28;20040;-67
2023/02/15 14:22:28;;;;;;;9.50;4.20;;;12.40;63.10;;;;;;20903574;28;20041;-60
2023/02/15 14:32:44;;;;;;;11.57;5.43;;;11.90;64.90;;;;;;20903867;28;20044;-61
2023/02/15 14:42:57;;;;;;;10.02;5.72;;;11.80;64.00;;;;;;20903225;28;20029;-67
2023/02/15 14:53:31;;;;;;;11.75;6.55;;;11.40;65.30;;;;;;20901603;28;20090;-67
2023/02/15 15:03:33;;;;;;;15.90;7.75;;;11.00;65.20;;;;;;20902653;28;20490;-67
2023/02/15 15:13:37;;;;;;;16.27;8.52;;;10.60;66.40;;;;;;20900719;28;20053;-59
2023/02/15 15:23:44;;;;;;;20.35;8.80;;;10.30;67.90;;;;;;20900390;28;20037;-67
2023/02/15 15:34:05;;;;;;;11.70;5.90;;;10.00;70.60;;;;;;20905957;28;20397;-67
2023/02/15 15:44:43;;;;;;;7.80;3.20;;;9.60;71.70;;;;;;20884944;28;20099;-68
2023/02/15 15:54:48;;;;;;;8.98;4.40;;;8.60;72.70;;;;;;20892450;28;20429;-60
2023/02/15 16:04:50;;;;;;;10.85;4.53;;;7.50;76.00;;;;;;20910293;28;20033;-61
2023/02/15 16:14:53;;;;;;;7.72;2.83;;;6.60;78.30;;;;;;20912275;28;20225;-66
2023/02/15 16:25:13;;;;;;;6.07;2.45;;;6.10;80.30;;;;;;20912375;28;20045;-60
2023/02/15 16:35:17;;;;;;;5.03;2.08;;;5.70;80.70;;;;;;20908943;28;20025;-60
2023/02/15 16:45:21;;;;;;;5.30;1.83;;;5.40;78.50;;;;;;20907560;28;20119;-66
2023/02/15 16:55:27;;;;;;;4.45;1.65;;;5.10;80.80;;;;;;20903619;28;20048;-60
2023/02/15 17:05:44;;;;;;;3.10;1.30;;;4.80;81.70;;;;;;20897888;28;20028;-60
2023/02/15 17:16:20;;;;;;;2.10;1.00;;;4.50;79.00;;;;;;20910249;28;20059;-60
2023/02/15 17:26:27;;;;;;;2.25;1.05;;;4.40;78.00;;;;;;20907991;28;20095;-67
2023/02/15 17:36:30;;;;;;;4.13;1.15;;;4.20;77.10;;;;;;20904932;28;20029;-66
2023/02/15 17:46:36;;;;;;;2.70;0.90;;;4.20;78.10;;;;;;20905618;28;20048;-60
2023/02/15 17:56:39;;;;;;;2.42;0.88;;;4.10;79.70;;;;;;20904817;28;20091;-60
2023/02/15 18:17:04;;;;;;;2.88;0.95;;;3.80;77.20;;;;;;20905675;28;20444;-67
2023/02/15 18:27:06;;;;;;;3.35;0.93;;;3.50;78.80;;;;;;20903901;28;20138;-59
2023/02/15 18:37:15;;;;;;;1.70;0.65;;;3.60;79.20;;;;;;20903430;28;20032;-59
2023/02/15 18:47:17;;;;;;;1.73;0.60;;;3.60;75.30;;;;;;20903873;28;20032;-67
2023/02/15 18:57:19;;;;;;;1.92;0.60;;;3.40;77.20;;;;;;20903418;28;20033;-67
2023/02/15 19:07:25;;;;;;;2.05;0.50;;;3.30;80.80;;;;;;20903597;28;20041;-67
2023/02/15 19:17:27;;;;;;;1.33;0.52;;;3.50;74.90;;;;;;20918524;28;20037;-59
2023/02/15 19:27:31;;;;;;;1.30;0.50;;;3.30;74.90;;;;;;20917405;28;20037;-60
2023/02/15 19:37:37;;;;;;;3.75;1.00;;;3.30;74.40;;;;;;20916602;28;20091;-67
2023/02/15 19:47:40;;;;;;;2.60;0.73;;;3.40;77.80;;;;;;20916168;28;20419;-59
2023/02/15 19:57:42;;;;;;;3.65;0.98;;;3.30;77.70;;;;;;20916141;28;20441;-60
2023/02/15 20:07:47;;;;;;;2.33;0.70;;;3.20;76.90;;;;;;20914036;28;20444;-60
2023/02/15 20:17:50;;;;;;;1.98;0.40;;;3.20;78.70;;;;;;20912794;28;20029;-59
2023/02/15 20:27:52;;;;;;;2.60;0.50;;;3.10;78.00;;;;;;20912736;28;20095;-59
2023/02/15 20:37:59;;;;;;;1.77;0.60;;;3.10;77.80;;;;;;20911865;28;20033;-59
2023/02/15 20:48:01;;;;;;;1.58;0.50;;;3.20;77.80;;;;;;20910808;28;20067;-59
2023/02/15 20:58:18;;;;;;;2.28;0.43;;;3.10;78.80;;;;;;20908935;28;20078;-60
2023/02/15 21:08:21;;;;;;;2.53;0.75;;;3.00;76.70;;;;;;20909437;28;20106;-68
2023/02/15 21:18:32;;;;;;;2.80;0.90;;;2.80;76.80;;;;;;20908277;28;20045;-59
2023/02/15 21:28:33;;;;;;;2.63;1.20;;;2.70;81.60;;;;;;20907786;28;20041;-59
2023/02/15 21:38:36;;;;;;;3.08;1.02;;;2.40;80.40;;;;;;20906071;28;20037;-59
2023/02/15 21:48:38;;;;;;;5.32;2.20;;;2.30;80.10;;;;;;20905756;28;20037;-59
2023/02/15 21:58:40;;;;;;;1.48;0.70;;;2.20;83.20;;;;;;20904911;28;20036;-59
2023/02/15 22:08:42;;;;;;;2.20;1.05;;;2.20;78.80;;;;;;20903996;28;20425;-59
2023/02/15 22:18:44;;;;;;;5.28;1.40;;;2.10;79.70;;;;;;20903778;28;20037;-59
2023/02/15 22:28:49;;;;;;;3.35;1.20;;;2.20;81.50;;;;;;20904573;28;20427;-60
2023/02/15 22:38:52;;;;;;;3.00;0.65;;;2.20;84.00;;;;;;20903876;28;20024;-66
2023/02/15 22:49:01;;;;;;;1.45;0.90;;;2.10;80.40;;;;;;20916463;28;20547;-59
2023/02/15 22:59:07;;;;;;;1.90;0.57;;;2.20;81.90;;;;;;20919391;28;20037;-60
2023/02/15 23:09:09;;;;;;;1.83;0.60;;;2.30;79.50;;;;;;20919511;28;20060;-60
2023/02/15 23:19:14;;;;;;;4.15;0.85;;;2.10;79.00;;;;;;20917469;28;20038;-59
2023/02/15 23:29:18;;;;;;;2.70;1.10;;;2.10;80.80;;;;;;20916546;28;20041;-59
2023/02/15 23:49:41;;;;;;;2.67;1.17;;;2.50;80.60;;;;;;20915202;28;20041;-68
2023/02/15 23:59:44;;;;;;;3.85;1.30;;;2.50;79.30;;;;;;20912522;28;20072;-68
